sensor_id;sensor_type;location;lat;lon;timestamp;pressure;altitude;pressure_sealevel;temperature;humidity
62800;BME280;48842;51.046;13.796;2023-07-13T00:02:05;99982.59;;;26.29;nan
62800;BME280;48842;51.046;13.796;2023-07-13T00:04:30;99977.44;;;26.26;nan
62800;BME280;48842;51.046;13.796;2023-07-13T00:06:56;99971.53;;;26.21;nan
62800;BME280;48842;51.046;13.796;2023-07-13T00:09:21;99982.47;;;26.18;nan
62800;BME280;48842;51.046;13.796;2023-07-13T00:11:53;99980.94;;;26.14;nan
62800;BME280;48842;51.046;13.796;2023-07-13T00:14:19;99979.22;;;26.13;nan
62800;BME280;48842;51.046;13.796;2023-07-13T00:16:44;99987.28;;;26.13;nan
62800;BME280;48842;51.046;13.796;2023-07-13T00:19:11;100001.66;;;26.12;nan
62800;BME280;48842;51.046;13.796;2023-07-13T00:21:38;99996.28;;;26.12;nan
62800;BME280;48842;51.046;13.796;2023-07-13T00:24:05;100005.13;;;26.14;nan
62800;BME280;48842;51.046;13.796;2023-07-13T00:26:31;100011.25;;;26.16;nan
62800;BME280;48842;51.046;13.796;2023-07-13T00:28:57;100010.28;;;26.17;nan
62800;BME280;48842;51.046;13.796;2023-07-13T00:31:23;100025.44;;;26.18;nan
62800;BME280;48842;51.046;13.796;2023-07-13T00:33:48;100036.19;;;26.18;nan
62800;BME280;48842;51.046;13.796;2023-07-13T00:36:14;100045.94;;;26.19;nan
62800;BME280;48842;51.046;13.796;2023-07-13T00:38:39;100052.19;;;26.20;nan
62800;BME280;48842;51.046;13.796;2023-07-13T00:41:04;100057.75;;;26.17;nan
62800;BME280;48842;51.046;13.796;2023-07-13T00:43:30;100077.81;;;26.11;nan
62800;BME280;48842;51.046;13.796;2023-07-13T00:48:24;100084.91;;;25.98;nan
62800;BME280;48842;51.046;13.796;2023-07-13T00:50:52;100085.31;;;25.91;nan
62800;BME280;48842;51.046;13.796;2023-07-13T00:53:19;100090.13;;;25.86;nan
62800;BME280;48842;51.046;13.796;2023-07-13T00:55:45;100085.91;;;25.82;nan
62800;BME280;48842;51.046;13.796;2023-07-13T00:58:11;100081.88;;;25.75;nan
62800;BME280;48842;51.046;13.796;2023-07-13T01:00:39;100082.28;;;25.69;nan
62800;BME280;48842;51.046;13.796;2023-07-13T01:03:05;100077.69;;;25.56;nan
62800;BME280;48842;51.046;13.796;2023-07-13T01:05:33;100068.28;;;25.49;nan
62800;BME280;48842;51.046;13.796;2023-07-13T01:07:59;100044.53;;;25.43;nan
62800;BME280;48842;51.046;13.796;2023-07-13T01:10:26;100020.00;;;25.35;nan
62800;BME280;48842;51.046;13.796;2023-07-13T01:12:51;100005.81;;;25.18;nan
62800;BME280;48842;51.046;13.796;2023-07-13T01:15:46;99999.31;;;25.08;nan
62800;BME280;48842;51.046;13.796;2023-07-13T01:18:15;99997.13;;;25.00;nan
62800;BME280;48842;51.046;13.796;2023-07-13T01:20:50;100017.31;;;24.91;nan
62800;BME280;48842;51.046;13.796;2023-07-13T01:23:15;100034.72;;;24.84;nan
62800;BME280;48842;51.046;13.796;2023-07-13T01:25:40;100043.22;;;24.77;nan
62800;BME280;48842;51.046;13.796;2023-07-13T01:28:07;100039.28;;;24.68;nan
62800;BME280;48842;51.046;13.796;2023-07-13T01:30:34;100032.56;;;24.61;nan
62800;BME280;48842;51.046;13.796;2023-07-13T01:33:00;100032.88;;;24.54;nan
62800;BME280;48842;51.046;13.796;2023-07-13T01:35:25;100036.72;;;24.50;nan
62800;BME280;48842;51.046;13.796;2023-07-13T01:37:52;100037.03;;;24.44;nan
62800;BME280;48842;51.046;13.796;2023-07-13T01:40:17;100040.88;;;24.40;nan
62800;BME280;48842;51.046;13.796;2023-07-13T01:42:43;100038.53;;;24.34;nan
62800;BME280;48842;51.046;13.796;2023-07-13T01:45:08;100040.56;;;24.30;nan
62800;BME280;48842;51.046;13.796;2023-07-13T01:47:33;100044.34;;;24.26;nan
62800;BME280;48842;51.046;13.796;2023-07-13T01:49:59;100052.66;;;24.21;nan
62800;BME280;48842;51.046;13.796;2023-07-13T01:52:24;100047.47;;;24.18;nan
62800;BME280;48842;51.046;13.796;2023-07-13T01:54:50;100046.97;;;24.12;nan
62800;BME280;48842;51.046;13.796;2023-07-13T01:57:15;100037.38;;;24.08;nan
62800;BME280;48842;51.046;13.796;2023-07-13T01:59:40;100036.69;;;24.04;nan
62800;BME280;48842;51.046;13.796;2023-07-13T02:02:05;100032.28;;;24.03;nan
62800;BME280;48842;51.046;13.796;2023-07-13T02:04:31;100027.03;;;24.01;nan
62800;BME280;48842;51.046;13.796;2023-07-13T02:06:56;100024.44;;;24.00;nan
62800;BME280;48842;51.046;13.796;2023-07-13T02:09:21;100025.47;;;23.97;nan
62800;BME280;48842;51.046;13.796;2023-07-13T02:11:47;100033.69;;;23.94;nan
62800;BME280;48842;51.046;13.796;2023-07-13T02:14:13;100041.78;;;23.93;nan
62800;BME280;48842;51.046;13.796;2023-07-13T02:16:40;100028.59;;;23.90;nan
62800;BME280;48842;51.046;13.796;2023-07-13T02:19:05;100030.41;;;23.89;nan
62800;BME280;48842;51.046;13.796;2023-07-13T02:21:31;100034.13;;;23.86;nan
62800;BME280;48842;51.046;13.796;2023-07-13T02:23:56;100035.13;;;23.84;nan
62800;BME280;48842;51.046;13.796;2023-07-13T02:26:22;100034.53;;;23.79;nan
62800;BME280;48842;51.046;13.796;2023-07-13T02:28:47;100038.31;;;23.75;nan
62800;BME280;48842;51.046;13.796;2023-07-13T02:31:14;100035.81;;;23.72;nan
62800;BME280;48842;51.046;13.796;2023-07-13T02:33:41;100043.13;;;23.68;nan
62800;BME280;48842;51.046;13.796;2023-07-13T02:36:06;100048.66;;;23.65;nan
62800;BME280;48842;51.046;13.796;2023-07-13T02:38:33;100046.06;;;23.63;nan
62800;BME280;48842;51.046;13.796;2023-07-13T02:41:00;100041.56;;;23.64;nan
62800;BME280;48842;51.046;13.796;2023-07-13T02:43:26;100050.66;;;23.61;nan
62800;BME280;48842;51.046;13.796;2023-07-13T02:45:51;100052.44;;;23.61;nan
62800;BME280;48842;51.046;13.796;2023-07-13T02:48:17;100053.41;;;23.60;nan
62800;BME280;48842;51.046;13.796;2023-07-13T02:50:44;100048.06;;;23.60;nan
62800;BME280;48842;51.046;13.796;2023-07-13T02:53:09;100044.69;;;23.56;nan
62800;BME280;48842;51.046;13.796;2023-07-13T02:55:34;100044.00;;;23.52;nan
62800;BME280;48842;51.046;13.796;2023-07-13T02:58:00;100045.19;;;23.47;nan
62800;BME280;48842;51.046;13.796;2023-07-13T03:00:25;100049.91;;;23.42;nan
62800;BME280;48842;51.046;13.796;2023-07-13T03:02:50;100054.56;;;23.38;nan
62800;BME280;48842;51.046;13.796;2023-07-13T03:05:17;100064.47;;;23.36;nan
62800;BME280;48842;51.046;13.796;2023-07-13T03:07:42;100064.47;;;23.36;nan
62800;BME280;48842;51.046;13.796;2023-07-13T03:10:09;100055.69;;;23.34;nan
62800;BME280;48842;51.046;13.796;2023-07-13T03:12:35;100061.13;;;23.32;nan
62800;BME280;48842;51.046;13.796;2023-07-13T03:15:00;100061.19;;;23.31;nan
62800;BME280;48842;51.046;13.796;2023-07-13T03:17:26;100064.72;;;23.31;nan
62800;BME280;48842;51.046;13.796;2023-07-13T03:19:51;100064.63;;;23.33;nan
62800;BME280;48842;51.046;13.796;2023-07-13T03:22:17;100062.75;;;23.35;nan
62800;BME280;48842;51.046;13.796;2023-07-13T03:24:43;100060.19;;;23.33;nan
62800;BME280;48842;51.046;13.796;2023-07-13T03:27:08;100060.25;;;23.32;nan
62800;BME280;48842;51.046;13.796;2023-07-13T03:29:34;100062.97;;;23.30;nan
62800;BME280;48842;51.046;13.796;2023-07-13T03:31:59;100066.72;;;23.28;nan
62800;BME280;48842;51.046;13.796;2023-07-13T03:34:24;100061.38;;;23.28;nan
62800;BME280;48842;51.046;13.796;2023-07-13T03:36:49;100067.66;;;23.27;nan
62800;BME280;48842;51.046;13.796;2023-07-13T03:39:15;100070.31;;;23.27;nan
62800;BME280;48842;51.046;13.796;2023-07-13T03:41:40;100079.28;;;23.26;nan
62800;BME280;48842;51.046;13.796;2023-07-13T03:44:05;100077.72;;;23.22;nan
62800;BME280;48842;51.046;13.796;2023-07-13T03:46:31;100079.59;;;23.20;nan
62800;BME280;48842;51.046;13.796;2023-07-13T03:48:57;100078.50;;;23.24;nan
62800;BME280;48842;51.046;13.796;2023-07-13T03:51:22;100083.69;;;23.27;nan
62800;BME280;48842;51.046;13.796;2023-07-13T03:53:47;100090.94;;;23.25;nan
62800;BME280;48842;51.046;13.796;2023-07-13T03:56:14;100092.81;;;23.23;nan
62800;BME280;48842;51.046;13.796;2023-07-13T03:58:44;100084.03;;;23.21;nan
62800;BME280;48842;51.046;13.796;2023-07-13T04:01:11;100083.06;;;23.22;nan
62800;BME280;48842;51.046;13.796;2023-07-13T04:03:37;100094.53;;;23.24;nan
62800;BME280;48842;51.046;13.796;2023-07-13T04:06:04;100094.28;;;23.28;nan
62800;BME280;48842;51.046;13.796;2023-07-13T04:08:32;100100.09;;;23.37;nan
62800;BME280;48842;51.046;13.796;2023-07-13T04:10:58;100104.31;;;23.41;nan
62800;BME280;48842;51.046;13.796;2023-07-13T04:13:24;100110.38;;;23.44;nan
62800;BME280;48842;51.046;13.796;2023-07-13T04:15:50;100111.97;;;23.48;nan
62800;BME280;48842;51.046;13.796;2023-07-13T04:18:15;100115.22;;;23.53;nan
62800;BME280;48842;51.046;13.796;2023-07-13T04:20:40;100123.00;;;23.58;nan
62800;BME280;48842;51.046;13.796;2023-07-13T04:23:06;100129.84;;;23.64;nan
62800;BME280;48842;51.046;13.796;2023-07-13T04:25:31;100119.84;;;23.67;nan
62800;BME280;48842;51.046;13.796;2023-07-13T04:27:56;100118.91;;;23.68;nan
62800;BME280;48842;51.046;13.796;2023-07-13T04:30:22;100117.09;;;23.69;nan
62800;BME280;48842;51.046;13.796;2023-07-13T04:32:49;100123.22;;;23.71;nan
62800;BME280;48842;51.046;13.796;2023-07-13T04:35:14;100118.72;;;23.89;nan
62800;BME280;48842;51.046;13.796;2023-07-13T04:37:40;100120.97;;;23.79;nan
62800;BME280;48842;51.046;13.796;2023-07-13T04:40:06;100119.25;;;23.78;nan
62800;BME280;48842;51.046;13.796;2023-07-13T04:42:31;100120.28;;;23.76;nan
62800;BME280;48842;51.046;13.796;2023-07-13T04:44:57;100119.41;;;23.75;nan
62800;BME280;48842;51.046;13.796;2023-07-13T04:47:22;100123.91;;;23.75;nan
62800;BME280;48842;51.046;13.796;2023-07-13T04:49:48;100124.78;;;23.75;nan
62800;BME280;48842;51.046;13.796;2023-07-13T04:52:13;100126.44;;;23.78;nan
62800;BME280;48842;51.046;13.796;2023-07-13T04:54:38;100116.56;;;23.78;nan
62800;BME280;48842;51.046;13.796;2023-07-13T04:57:04;100128.06;;;23.80;nan
62800;BME280;48842;51.046;13.796;2023-07-13T04:59:32;100125.31;;;23.82;nan
62800;BME280;48842;51.046;13.796;2023-07-13T05:01:57;100127.00;;;23.83;nan
62800;BME280;48842;51.046;13.796;2023-07-13T05:04:23;100133.25;;;23.83;nan
62800;BME280;48842;51.046;13.796;2023-07-13T05:06:48;100142.22;;;23.82;nan
62800;BME280;48842;51.046;13.796;2023-07-13T05:09:13;100132.38;;;23.83;nan
62800;BME280;48842;51.046;13.796;2023-07-13T05:11:38;100137.63;;;23.86;nan
62800;BME280;48842;51.046;13.796;2023-07-13T05:14:04;100147.25;;;23.88;nan
62800;BME280;48842;51.046;13.796;2023-07-13T05:16:29;100144.28;;;23.95;nan
62800;BME280;48842;51.046;13.796;2023-07-13T05:18:55;100139.50;;;24.00;nan
62800;BME280;48842;51.046;13.796;2023-07-13T05:21:20;100135.53;;;24.07;nan
62800;BME280;48842;51.046;13.796;2023-07-13T05:23:45;100132.53;;;24.13;nan
62800;BME280;48842;51.046;13.796;2023-07-13T05:26:10;100127.69;;;24.20;nan
62800;BME280;48842;51.046;13.796;2023-07-13T05:28:36;100133.63;;;24.25;nan
62800;BME280;48842;51.046;13.796;2023-07-13T05:31:01;100128.03;;;24.30;nan
62800;BME280;48842;51.046;13.796;2023-07-13T05:33:27;100134.84;;;24.35;nan
62800;BME280;48842;51.046;13.796;2023-07-13T05:35:52;100140.03;;;24.38;nan
62800;BME280;48842;51.046;13.796;2023-07-13T05:38:18;100140.47;;;24.47;nan
62800;BME280;48842;51.046;13.796;2023-07-13T05:40:44;100140.38;;;24.48;nan
62800;BME280;48842;51.046;13.796;2023-07-13T05:43:09;100138.63;;;24.47;nan
62800;BME280;48842;51.046;13.796;2023-07-13T05:45:34;100144.97;;;24.46;nan
62800;BME280;48842;51.046;13.796;2023-07-13T05:48:00;100145.13;;;24.43;nan
62800;BME280;48842;51.046;13.796;2023-07-13T05:50:26;100153.34;;;24.40;nan
62800;BME280;48842;51.046;13.796;2023-07-13T05:52:51;100142.78;;;24.37;nan
62800;BME280;48842;51.046;13.796;2023-07-13T05:55:17;100139.34;;;24.35;nan
62800;BME280;48842;51.046;13.796;2023-07-13T05:57:42;100141.09;;;24.36;nan
62800;BME280;48842;51.046;13.796;2023-07-13T06:00:08;100136.50;;;24.38;nan
62800;BME280;48842;51.046;13.796;2023-07-13T06:02:34;100132.06;;;24.37;nan
62800;BME280;48842;51.046;13.796;2023-07-13T06:05:00;100136.56;;;24.36;nan
62800;BME280;48842;51.046;13.796;2023-07-13T06:07:25;100130.38;;;24.36;nan
62800;BME280;48842;51.046;13.796;2023-07-13T06:09:50;100132.06;;;24.37;nan
62800;BME280;48842;51.046;13.796;2023-07-13T06:12:16;100140.19;;;24.35;nan
62800;BME280;48842;51.046;13.796;2023-07-13T06:14:41;100132.25;;;24.34;nan
62800;BME280;48842;51.046;13.796;2023-07-13T06:17:07;100138.50;;;24.34;nan
62800;BME280;48842;51.046;13.796;2023-07-13T06:19:32;100135.72;;;24.36;nan
62800;BME280;48842;51.046;13.796;2023-07-13T06:21:57;100155.06;;;24.41;nan
62800;BME280;48842;51.046;13.796;2023-07-13T06:24:24;100154.69;;;24.47;nan
62800;BME280;48842;51.046;13.796;2023-07-13T06:26:49;100163.16;;;24.55;nan
62800;BME280;48842;51.046;13.796;2023-07-13T06:29:14;100166.31;;;24.64;nan
62800;BME280;48842;51.046;13.796;2023-07-13T06:31:40;100151.63;;;24.71;nan
62800;BME280;48842;51.046;13.796;2023-07-13T06:34:05;100153.75;;;24.80;nan
62800;BME280;48842;51.046;13.796;2023-07-13T06:36:30;100149.56;;;24.90;nan
62800;BME280;48842;51.046;13.796;2023-07-13T06:38:55;100155.25;;;25.00;nan
62800;BME280;48842;51.046;13.796;2023-07-13T06:41:21;100147.03;;;25.03;nan
62800;BME280;48842;51.046;13.796;2023-07-13T06:43:47;100153.94;;;25.07;nan
62800;BME280;48842;51.046;13.796;2023-07-13T06:46:12;100150.19;;;25.10;nan
62800;BME280;48842;51.046;13.796;2023-07-13T06:48:37;100157.88;;;25.16;nan
62800;BME280;48842;51.046;13.796;2023-07-13T06:51:03;100164.81;;;25.20;nan
62800;BME280;48842;51.046;13.796;2023-07-13T06:53:28;100171.88;;;25.21;nan
62800;BME280;48842;51.046;13.796;2023-07-13T06:55:54;100172.75;;;25.22;nan
62800;BME280;48842;51.046;13.796;2023-07-13T06:58:20;100182.59;;;25.21;nan
62800;BME280;48842;51.046;13.796;2023-07-13T07:00:45;100183.47;;;25.22;nan
62800;BME280;48842;51.046;13.796;2023-07-13T07:03:11;100182.22;;;25.27;nan
62800;BME280;48842;51.046;13.796;2023-07-13T07:05:36;100181.91;;;25.34;nan
62800;BME280;48842;51.046;13.796;2023-07-13T07:08:02;100175.47;;;25.36;nan
62800;BME280;48842;51.046;13.796;2023-07-13T07:10:29;100187.94;;;25.37;nan
62800;BME280;48842;51.046;13.796;2023-07-13T07:12:55;100188.88;;;25.36;nan
62800;BME280;48842;51.046;13.796;2023-07-13T07:15:20;100184.97;;;25.42;nan
62800;BME280;48842;51.046;13.796;2023-07-13T07:17:45;100187.09;;;25.51;nan
62800;BME280;48842;51.046;13.796;2023-07-13T07:20:12;100182.91;;;25.61;nan
62800;BME280;48842;51.046;13.796;2023-07-13T07:22:37;100183.47;;;25.67;nan
62800;BME280;48842;51.046;13.796;2023-07-13T07:25:02;100192.97;;;25.72;nan
62800;BME280;48842;51.046;13.796;2023-07-13T07:27:28;100188.28;;;25.76;nan
62800;BME280;48842;51.046;13.796;2023-07-13T07:29:53;100188.09;;;25.79;nan
62800;BME280;48842;51.046;13.796;2023-07-13T07:32:19;100184.63;;;25.77;nan
62800;BME280;48842;51.046;13.796;2023-07-13T07:34:45;100186.75;;;25.72;nan
62800;BME280;48842;51.046;13.796;2023-07-13T07:37:12;100187.97;;;25.66;nan
62800;BME280;48842;51.046;13.796;2023-07-13T07:39:37;100177.25;;;25.66;nan
62800;BME280;48842;51.046;13.796;2023-07-13T07:42:03;100182.22;;;25.72;nan
62800;BME280;48842;51.046;13.796;2023-07-13T07:44:28;100181.19;;;25.75;nan
62800;BME280;48842;51.046;13.796;2023-07-13T07:46:54;100180.59;;;25.84;nan
62800;BME280;48842;51.046;13.796;2023-07-13T07:49:19;100179.06;;;25.94;nan
62800;BME280;48842;51.046;13.796;2023-07-13T07:51:44;100182.91;;;26.05;nan
62800;BME280;48842;51.046;13.796;2023-07-13T07:54:10;100178.03;;;26.11;nan
62800;BME280;48842;51.046;13.796;2023-07-13T07:56:35;100178.69;;;26.15;nan
62800;BME280;48842;51.046;13.796;2023-07-13T07:59:00;100181.19;;;26.18;nan
62800;BME280;48842;51.046;13.796;2023-07-13T08:01:25;100181.28;;;26.17;nan
62800;BME280;48842;51.046;13.796;2023-07-13T08:03:50;100177.19;;;26.11;nan
62800;BME280;48842;51.046;13.796;2023-07-13T08:06:16;100182.72;;;26.08;nan
62800;BME280;48842;51.046;13.796;2023-07-13T08:08:41;100178.53;;;26.04;nan
62800;BME280;48842;51.046;13.796;2023-07-13T08:11:09;100189.28;;;26.04;nan
62800;BME280;48842;51.046;13.796;2023-07-13T08:13:35;100188.47;;;26.02;nan
62800;BME280;48842;51.046;13.796;2023-07-13T08:16:01;100187.78;;;25.98;nan
62800;BME280;48842;51.046;13.796;2023-07-13T08:18:26;100187.78;;;25.98;nan
62800;BME280;48842;51.046;13.796;2023-07-13T08:20:53;100197.56;;;25.99;nan
62800;BME280;48842;51.046;13.796;2023-07-13T08:23:21;100198.28;;;26.03;nan
62800;BME280;48842;51.046;13.796;2023-07-13T08:25:53;100191.97;;;26.04;nan
62800;BME280;48842;51.046;13.796;2023-07-13T08:28:20;100191.56;;;26.10;nan
62800;BME280;48842;51.046;13.796;2023-07-13T08:30:45;100188.38;;;26.18;nan
62800;BME280;48842;51.046;13.796;2023-07-13T08:33:17;100188.66;;;26.27;nan
62800;BME280;48842;51.046;13.796;2023-07-13T08:35:46;100195.91;;;26.40;nan
62800;BME280;48842;51.046;13.796;2023-07-13T08:38:11;100196.75;;;26.55;nan
62800;BME280;48842;51.046;13.796;2023-07-13T08:40:36;100195.09;;;26.67;nan
62800;BME280;48842;51.046;13.796;2023-07-13T08:43:02;100194.50;;;26.76;nan
62800;BME280;48842;51.046;13.796;2023-07-13T08:45:37;100188.22;;;26.90;nan
62800;BME280;48842;51.046;13.796;2023-07-13T08:48:13;100191.50;;;27.08;nan
62800;BME280;48842;51.046;13.796;2023-07-13T08:50:49;100188.63;;;27.24;nan
62800;BME280;48842;51.046;13.796;2023-07-13T08:53:16;100191.25;;;27.38;nan
62800;BME280;48842;51.046;13.796;2023-07-13T08:55:42;100182.00;;;27.55;nan
62800;BME280;48842;51.046;13.796;2023-07-13T08:58:12;100194.72;;;27.66;nan
62800;BME280;48842;51.046;13.796;2023-07-13T09:01:01;100197.09;;;27.71;nan
62800;BME280;48842;51.046;13.796;2023-07-13T09:03:36;100199.00;;;27.68;nan
62800;BME280;48842;51.046;13.796;2023-07-13T09:06:03;100199.53;;;27.61;nan
62800;BME280;48842;51.046;13.796;2023-07-13T09:08:46;100196.75;;;27.49;nan
62800;BME280;48842;51.046;13.796;2023-07-13T09:11:23;100206.13;;;27.44;nan
62800;BME280;48842;51.046;13.796;2023-07-13T09:14:16;100208.47;;;27.36;nan
62800;BME280;48842;51.046;13.796;2023-07-13T09:16:46;100207.69;;;27.33;nan
62800;BME280;48842;51.046;13.796;2023-07-13T09:19:20;100211.06;;;27.37;nan
62800;BME280;48842;51.046;13.796;2023-07-13T09:21:50;100215.91;;;27.45;nan
62800;BME280;48842;51.046;13.796;2023-07-13T09:25:09;100215.16;;;27.56;nan
62800;BME280;48842;51.046;13.796;2023-07-13T09:27:43;100217.78;;;27.70;nan
62800;BME280;48842;51.046;13.796;2023-07-13T09:32:39;100216.66;;;27.73;nan
62800;BME280;48842;51.046;13.796;2023-07-13T09:35:11;100228.72;;;27.67;nan
62800;BME280;48842;51.046;13.796;2023-07-13T09:37:37;100229.81;;;27.64;nan
62800;BME280;48842;51.046;13.796;2023-07-13T09:40:03;100222.94;;;27.60;nan
62800;BME280;48842;51.046;13.796;2023-07-13T09:42:31;100227.00;;;27.53;nan
62800;BME280;48842;51.046;13.796;2023-07-13T09:45:00;100223.53;;;27.51;nan
62800;BME280;48842;51.046;13.796;2023-07-13T09:47:37;100227.13;;;27.51;nan
62800;BME280;48842;51.046;13.796;2023-07-13T09:50:06;100231.81;;;27.48;nan
62800;BME280;48842;51.046;13.796;2023-07-13T09:55:23;100241.16;;;27.29;nan
62800;BME280;48842;51.046;13.796;2023-07-13T09:57:49;100246.91;;;27.23;nan
62800;BME280;48842;51.046;13.796;2023-07-13T10:00:27;100243.06;;;27.27;nan
62800;BME280;48842;51.046;13.796;2023-07-13T10:03:01;100240.75;;;27.36;nan
62800;BME280;48842;51.046;13.796;2023-07-13T10:05:37;100245.59;;;27.43;nan
62800;BME280;48842;51.046;13.796;2023-07-13T10:08:02;100242.59;;;27.48;nan
62800;BME280;48842;51.046;13.796;2023-07-13T10:10:27;100242.31;;;27.52;nan
62800;BME280;48842;51.046;13.796;2023-07-13T10:12:53;100254.91;;;27.65;nan
62800;BME280;48842;51.046;13.796;2023-07-13T10:15:23;100243.28;;;27.64;nan
62800;BME280;48842;51.046;13.796;2023-07-13T10:17:51;100244.25;;;27.63;nan
62800;BME280;48842;51.046;13.796;2023-07-13T10:20:18;100245.75;;;27.67;nan
62800;BME280;48842;51.046;13.796;2023-07-13T10:22:52;100242.63;;;27.74;nan
62800;BME280;48842;51.046;13.796;2023-07-13T10:25:21;100247.78;;;27.77;nan
62800;BME280;48842;51.046;13.796;2023-07-13T10:28:00;100243.19;;;27.79;nan
62800;BME280;48842;51.046;13.796;2023-07-13T10:30:31;100242.75;;;27.85;nan
62800;BME280;48842;51.046;13.796;2023-07-13T10:33:00;100248.66;;;27.90;nan
62800;BME280;48842;51.046;13.796;2023-07-13T10:35:29;100240.13;;;27.96;nan
62800;BME280;48842;51.046;13.796;2023-07-13T10:38:01;100238.88;;;28.02;nan
62800;BME280;48842;51.046;13.796;2023-07-13T10:40:37;100237.34;;;28.11;nan
62800;BME280;48842;51.046;13.796;2023-07-13T10:43:09;100235.00;;;28.19;nan
62800;BME280;48842;51.046;13.796;2023-07-13T10:45:38;100228.94;;;28.28;nan
62800;BME280;48842;51.046;13.796;2023-07-13T10:48:05;100240.13;;;28.35;nan
62800;BME280;48842;51.046;13.796;2023-07-13T10:50:32;100231.25;;;28.46;nan
62800;BME280;48842;51.046;13.796;2023-07-13T10:53:15;100230.28;;;28.47;nan
62800;BME280;48842;51.046;13.796;2023-07-13T11:03:31;100224.44;;;28.53;nan
62800;BME280;48842;51.046;13.796;2023-07-13T11:08:57;100215.94;;;28.59;nan
62800;BME280;48842;51.046;13.796;2023-07-13T11:13:59;100218.94;;;28.67;nan
62800;BME280;48842;51.046;13.796;2023-07-13T11:16:35;100212.66;;;28.80;nan
62800;BME280;48842;51.046;13.796;2023-07-13T11:21:27;100215.00;;;28.84;nan
62800;BME280;48842;51.046;13.796;2023-07-13T11:24:21;100217.81;;;28.83;nan
62800;BME280;48842;51.046;13.796;2023-07-13T11:31:40;100221.19;;;28.98;nan
62800;BME280;48842;51.046;13.796;2023-07-13T11:34:13;100206.72;;;28.99;nan
62800;BME280;48842;51.046;13.796;2023-07-13T11:36:43;100223.53;;;29.02;nan
62800;BME280;48842;51.046;13.796;2023-07-13T11:39:16;100218.13;;;29.02;nan
62800;BME280;48842;51.046;13.796;2023-07-13T11:41:45;100215.97;;;29.07;nan
62800;BME280;48842;51.046;13.796;2023-07-13T11:44:18;100215.13;;;29.18;nan
62800;BME280;48842;51.046;13.796;2023-07-13T11:46:48;100205.50;;;29.27;nan
62800;BME280;48842;51.046;13.796;2023-07-13T11:49:16;100217.78;;;29.31;nan
62800;BME280;48842;51.046;13.796;2023-07-13T11:51:43;100205.25;;;29.30;nan
62800;BME280;48842;51.046;13.796;2023-07-13T11:54:27;100208.59;;;29.34;nan
62800;BME280;48842;51.046;13.796;2023-07-13T11:56:55;100203.31;;;29.43;nan
62800;BME280;48842;51.046;13.796;2023-07-13T11:59:23;100207.25;;;29.51;nan
62800;BME280;48842;51.046;13.796;2023-07-13T12:01:52;100203.59;;;29.52;nan
62800;BME280;48842;51.046;13.796;2023-07-13T12:04:26;100208.34;;;29.48;nan
62800;BME280;48842;51.046;13.796;2023-07-13T12:07:07;100201.75;;;29.41;nan
62800;BME280;48842;51.046;13.796;2023-07-13T12:09:34;100194.97;;;29.35;nan
62800;BME280;48842;51.046;13.796;2023-07-13T12:12:02;100193.50;;;29.31;nan
62800;BME280;48842;51.046;13.796;2023-07-13T12:14:28;100197.81;;;29.45;nan
62800;BME280;48842;51.046;13.796;2023-07-13T12:16:54;100183.13;;;29.60;nan
62800;BME280;48842;51.046;13.796;2023-07-13T12:19:27;100193.94;;;29.72;nan
62800;BME280;48842;51.046;13.796;2023-07-13T12:21:57;100187.19;;;29.77;nan
62800;BME280;48842;51.046;13.796;2023-07-13T12:24:25;100193.81;;;29.73;nan
62800;BME280;48842;51.046;13.796;2023-07-13T12:27:02;100186.41;;;29.64;nan
62800;BME280;48842;51.046;13.796;2023-07-13T12:29:29;100193.19;;;29.58;nan
62800;BME280;48842;51.046;13.796;2023-07-13T12:31:55;100190.59;;;29.57;nan
62800;BME280;48842;51.046;13.796;2023-07-13T12:34:24;100191.22;;;29.60;nan
62800;BME280;48842;51.046;13.796;2023-07-13T12:37:00;100201.44;;;29.80;nan
62800;BME280;48842;51.046;13.796;2023-07-13T12:39:34;100185.13;;;29.92;nan
62800;BME280;48842;51.046;13.796;2023-07-13T12:42:27;100183.03;;;30.07;nan
62800;BME280;48842;51.046;13.796;2023-07-13T12:45:30;100186.72;;;30.18;nan
62800;BME280;48842;51.046;13.796;2023-07-13T12:47:53;100182.19;;;30.07;nan
62800;BME280;48842;51.046;13.796;2023-07-13T12:50:21;100184.50;;;30.00;nan
62800;BME280;48842;51.046;13.796;2023-07-13T12:52:53;100194.34;;;30.01;nan
62800;BME280;48842;51.046;13.796;2023-07-13T12:55:20;100189.53;;;30.05;nan
62800;BME280;48842;51.046;13.796;2023-07-13T12:57:56;100186.06;;;30.25;nan
62800;BME280;48842;51.046;13.796;2023-07-13T13:00:29;100190.97;;;30.54;nan
62800;BME280;48842;51.046;13.796;2023-07-13T13:02:58;100201.38;;;30.70;nan
62800;BME280;48842;51.046;13.796;2023-07-13T13:05:29;100196.47;;;30.75;nan
62800;BME280;48842;51.046;13.796;2023-07-13T13:07:55;100195.28;;;30.89;nan
62800;BME280;48842;51.046;13.796;2023-07-13T13:10:20;100181.63;;;30.91;nan
62800;BME280;48842;51.046;13.796;2023-07-13T13:12:46;100186.09;;;30.80;nan
62800;BME280;48842;51.046;13.796;2023-07-13T13:15:13;100185.56;;;30.87;nan
62800;BME280;48842;51.046;13.796;2023-07-13T13:17:38;100180.44;;;31.16;nan
62800;BME280;48842;51.046;13.796;2023-07-13T13:20:19;100176.19;;;31.87;nan
62800;BME280;48842;51.046;13.796;2023-07-13T13:22:45;100164.81;;;33.51;nan
62800;BME280;48842;51.046;13.796;2023-07-13T13:25:12;100175.03;;;35.50;nan
62800;BME280;48842;51.046;13.796;2023-07-13T13:27:37;100163.63;;;37.32;nan
62800;BME280;48842;51.046;13.796;2023-07-13T13:30:12;100163.63;;;37.32;nan
62800;BME280;48842;51.046;13.796;2023-07-13T13:32:46;100163.63;;;37.32;nan